createdAt,value
2023-05-01T00:01:50.257Z,575.33
2023-05-01T00:04:19.292Z,595.55
2023-05-01T00:06:47.966Z,606.63
2023-05-01T00:09:16.421Z,563.72
2023-05-01T00:11:45.947Z,585.25
2023-05-01T00:14:14.271Z,642.92
2023-05-01T00:16:42.709Z,567.13
2023-05-01T00:19:12.946Z,605.78
2023-05-01T00:21:41.535Z,582.00
2023-05-01T00:24:09.909Z,605.95
2023-05-01T00:26:38.283Z,603.70
2023-05-01T00:29:07.294Z,610.13
2023-05-01T00:31:36.070Z,515.97
2023-05-01T00:34:05.040Z,598.85
2023-05-01T00:36:34.798Z,599.67
2023-05-01T00:39:03.141Z,590.80
2023-05-01T00:41:31.508Z,601.60
2023-05-01T00:44:00.072Z,602.38
2023-05-01T00:46:29.948Z,580.78
2023-05-01T00:48:58.957Z,586.30
2023-05-01T00:51:28.297Z,617.60
2023-05-01T00:53:59.603Z,601.85
2023-05-01T00:56:27.994Z,573.05
2023-05-01T00:58:56.337Z,543.45
2023-05-01T01:01:24.928Z,556.38
2023-05-01T01:03:54.428Z,630.33
2023-05-01T01:06:33.962Z,560.83
2023-05-01T01:09:10.812Z,543.15
2023-05-01T01:11:44.505Z,628.08
2023-05-01T01:14:16.614Z,599.10
2023-05-01T01:16:49.617Z,578.60
2023-05-01T01:19:36.877Z,577.10
2023-05-01T01:22:11.841Z,620.90
2023-05-01T01:25:08.451Z,575.33
2023-05-01T01:28:11.158Z,559.92
2023-05-01T01:31:10.300Z,612.00
2023-05-01T01:34:09.169Z,604.40
2023-05-01T01:36:42.718Z,585.45
2023-05-01T01:39:16.129Z,588.97
2023-05-01T01:41:46.610Z,588.80
2023-05-01T01:44:21.149Z,598.30
2023-05-01T01:49:23.102Z,513.47
2023-05-01T01:51:52.073Z,581.03
2023-05-01T01:54:26.232Z,577.42
2023-05-01T01:56:55.416Z,555.95
2023-05-01T01:59:25.072Z,573.38
2023-05-01T02:01:55.346Z,621.60
2023-05-01T02:04:25.716Z,552.38
2023-05-01T02:06:54.329Z,655.85
2023-05-01T02:09:23.862Z,560.33
2023-05-01T02:11:52.790Z,590.53
2023-05-01T02:14:22.096Z,607.83
2023-05-01T02:16:50.837Z,637.42
2023-05-01T02:19:21.208Z,564.40
2023-05-01T02:21:51.690Z,613.25
2023-05-01T02:24:22.662Z,616.28
2023-05-01T02:26:55.584Z,638.70
2023-05-01T02:29:25.517Z,538.47
2023-05-01T02:31:53.968Z,601.15
2023-05-01T02:34:22.508Z,588.95
2023-05-01T02:36:52.190Z,570.17
2023-05-01T02:39:21.090Z,549.67
2023-05-01T02:41:50.689Z,580.88
2023-05-01T02:44:19.701Z,642.63
2023-05-01T02:46:49.670Z,521.00
2023-05-01T02:49:19.539Z,509.08
2023-05-01T02:51:48.357Z,604.78
2023-05-01T02:54:19.174Z,511.85
2023-05-01T02:56:47.561Z,575.33
2023-05-01T02:59:16.454Z,505.38
2023-05-01T03:01:44.948Z,544.17
2023-05-01T03:04:13.509Z,492.98
2023-05-01T03:06:42.083Z,475.67
2023-05-01T03:09:11.190Z,594.63
2023-05-01T03:11:40.856Z,543.65
2023-05-01T03:14:11.164Z,595.88
2023-05-01T03:16:39.590Z,581.28
2023-05-01T03:19:08.077Z,505.30
2023-05-01T03:21:37.015Z,644.97
2023-05-01T03:24:06.207Z,645.08
2023-05-01T03:26:34.667Z,569.90
2023-05-01T03:29:04.540Z,563.95
2023-05-01T03:31:32.988Z,501.27
2023-05-01T03:34:01.402Z,532.40
2023-05-01T03:36:29.871Z,573.60
2023-05-01T03:38:58.258Z,456.95
2023-05-01T03:41:26.723Z,432.33
2023-05-01T03:43:55.087Z,464.90
2023-05-01T03:46:24.840Z,416.15
2023-05-01T03:48:53.200Z,452.98
2023-05-01T03:51:21.672Z,430.90
2023-05-01T03:53:50.042Z,434.45
2023-05-01T03:56:18.380Z,445.20
2023-05-01T03:58:46.888Z,459.92
2023-05-01T04:01:15.346Z,492.60
2023-05-01T04:03:46.036Z,485.98
2023-05-01T04:06:16.441Z,450.38
2023-05-01T04:08:44.850Z,446.85
2023-05-01T04:11:13.150Z,464.08
2023-05-01T04:13:41.514Z,500.27
2023-05-01T04:16:09.979Z,486.70
2023-05-01T04:18:38.403Z,444.80
2023-05-01T04:21:08.605Z,551.08
2023-05-01T04:23:36.939Z,472.42
2023-05-01T04:26:05.311Z,460.42
2023-05-01T04:28:33.654Z,503.65
2023-05-01T04:31:02.420Z,607.28
2023-05-01T04:33:30.827Z,617.05
2023-05-01T04:35:59.180Z,509.55
2023-05-01T04:38:31.127Z,469.40
2023-05-01T04:40:59.770Z,581.45
2023-05-01T04:43:28.141Z,463.23
2023-05-01T04:45:56.502Z,524.42
2023-05-01T04:48:25.015Z,459.63
2023-05-01T04:50:53.365Z,498.33
2023-05-01T04:53:21.691Z,456.90
2023-05-01T04:55:51.474Z,511.42
2023-05-01T04:58:19.782Z,510.45
2023-05-01T05:00:48.153Z,508.25
2023-05-01T05:03:18.908Z,531.35
2023-05-01T05:05:47.602Z,513.47
2023-05-01T05:08:15.978Z,552.17
2023-05-01T05:10:44.361Z,570.80
2023-05-01T05:13:14.047Z,586.90
2023-05-01T05:15:42.419Z,645.25
2023-05-01T05:18:11.067Z,652.60
2023-05-01T05:20:42.776Z,645.97
2023-05-01T05:23:11.603Z,697.90
2023-05-01T05:25:39.977Z,638.83
2023-05-01T05:28:08.457Z,626.85
2023-05-01T05:30:38.302Z,610.00
2023-05-01T05:33:09.753Z,599.50
2023-05-01T05:35:38.100Z,638.70
2023-05-01T05:38:06.725Z,619.42
2023-05-01T05:40:35.071Z,623.45
2023-05-01T05:43:03.461Z,636.92
2023-05-01T05:45:34.306Z,617.65
2023-05-01T05:48:04.157Z,616.78
2023-05-01T05:50:32.622Z,615.47
2023-05-01T05:53:00.985Z,632.17
2023-05-01T05:55:29.383Z,641.10
2023-05-01T05:57:57.995Z,626.15
2023-05-01T06:00:26.357Z,637.28
2023-05-01T06:02:54.822Z,637.08
2023-05-01T06:05:24.655Z,620.83
2023-05-01T06:07:53.046Z,624.33
2023-05-01T06:10:21.454Z,598.85
2023-05-01T06:12:58.290Z,658.40
2023-05-01T06:15:37.601Z,627.92
2023-05-01T06:18:06.550Z,686.78
2023-05-01T06:20:36.548Z,585.33
2023-05-01T06:23:04.876Z,645.20
2023-05-01T06:25:33.170Z,623.50
2023-05-01T06:28:01.621Z,552.75
2023-05-01T06:30:29.922Z,673.47
2023-05-01T06:32:58.324Z,535.72
2023-05-01T06:35:27.205Z,568.60
2023-05-01T06:37:56.950Z,523.20
2023-05-01T06:40:25.444Z,529.22
2023-05-01T06:42:53.848Z,563.13
2023-05-01T06:45:22.213Z,545.80
2023-05-01T06:47:50.652Z,533.95
2023-05-01T06:50:19.113Z,538.22
2023-05-01T06:52:47.474Z,574.72
2023-05-01T06:55:17.553Z,555.67
2023-05-01T06:57:45.875Z,527.45
2023-05-01T07:00:17.472Z,625.83
2023-05-01T07:02:46.633Z,550.45
2023-05-01T07:05:15.121Z,531.60
2023-05-01T07:07:50.524Z,539.17
2023-05-01T07:10:28.016Z,596.00
2023-05-01T07:12:56.375Z,554.88
2023-05-01T07:15:24.987Z,592.17
2023-05-01T07:17:53.564Z,606.88
2023-05-01T07:20:22.094Z,671.88
2023-05-01T07:22:50.626Z,611.70
2023-05-01T07:25:20.272Z,618.80
2023-05-01T07:27:50.014Z,633.08
2023-05-01T07:30:18.399Z,599.85
2023-05-01T07:32:47.063Z,621.22
2023-05-01T07:35:15.505Z,609.10
2023-05-01T07:37:43.866Z,614.08
2023-05-01T07:40:13.079Z,625.58
2023-05-01T07:42:41.605Z,632.75
2023-05-01T07:45:12.472Z,645.60
2023-05-01T07:47:40.819Z,674.22
2023-05-01T07:50:12.212Z,671.35
2023-05-01T07:52:40.795Z,650.63
2023-05-01T07:55:10.527Z,653.88
2023-05-01T07:57:39.151Z,632.03
2023-05-01T08:00:10.537Z,701.10
2023-05-01T08:02:38.983Z,649.58
2023-05-01T08:05:08.154Z,642.58
2023-05-01T08:07:36.665Z,671.10
2023-05-01T08:10:05.744Z,658.33
2023-05-01T08:12:34.168Z,652.47
2023-05-01T08:15:02.647Z,633.90
2023-05-01T08:17:32.425Z,642.67
2023-05-01T08:20:02.020Z,628.55
2023-05-01T08:22:30.457Z,657.85
2023-05-01T08:24:58.821Z,668.80
2023-05-01T08:27:27.791Z,678.72
2023-05-01T08:29:56.353Z,704.70
2023-05-01T08:32:25.004Z,690.53
2023-05-01T08:34:54.781Z,666.38
2023-05-01T08:37:23.161Z,617.08
2023-05-01T08:39:51.527Z,646.08
2023-05-01T08:42:21.182Z,651.13
2023-05-01T08:44:51.061Z,714.25
2023-05-01T08:47:20.226Z,619.45
2023-05-01T08:49:50.818Z,534.38
2023-05-01T08:52:22.367Z,593.85
2023-05-01T08:54:51.203Z,573.38
2023-05-01T08:57:20.002Z,573.30
2023-05-01T08:59:50.769Z,598.03
2023-05-01T09:02:20.009Z,619.42
2023-05-01T09:04:49.572Z,536.70
2023-05-01T09:07:19.490Z,589.10
2023-05-01T09:09:47.983Z,538.42
2023-05-01T09:12:24.220Z,542.35
2023-05-01T09:14:53.350Z,516.05
2023-05-01T09:17:23.019Z,531.45
2023-05-01T09:19:51.954Z,594.78
2023-05-01T09:22:22.267Z,532.15
2023-05-01T09:24:50.602Z,508.90
2023-05-01T09:27:19.185Z,585.22
2023-05-01T09:29:48.448Z,493.85
2023-05-01T09:32:20.515Z,513.03
2023-05-01T09:34:49.529Z,468.58
2023-05-01T09:37:28.733Z,505.55
2023-05-01T09:40:08.409Z,480.58
2023-05-01T09:42:39.013Z,539.90
2023-05-01T09:45:13.868Z,442.45
2023-05-01T09:47:43.950Z,513.65
2023-05-01T09:50:14.157Z,465.67
2023-05-01T09:52:52.405Z,496.45
2023-05-01T09:55:22.229Z,476.50
2023-05-01T09:57:51.590Z,452.02
2023-05-01T10:00:21.980Z,496.08
2023-05-01T10:02:51.475Z,461.63
2023-05-01T10:05:20.178Z,448.25
2023-05-01T10:08:00.925Z,460.00
2023-05-01T10:10:29.391Z,470.25
2023-05-01T10:13:09.069Z,484.42
2023-05-01T10:18:34.674Z,466.23
2023-05-01T10:21:04.167Z,433.83
2023-05-01T10:23:34.599Z,488.95
2023-05-01T10:26:05.093Z,482.35
2023-05-01T10:28:34.320Z,549.03
2023-05-01T10:31:03.524Z,504.30
2023-05-01T10:33:32.026Z,481.80
2023-05-01T10:36:02.073Z,486.85
2023-05-01T10:38:35.856Z,497.55
2023-05-01T10:41:06.212Z,450.92
2023-05-01T10:43:34.596Z,476.35
2023-05-01T10:46:28.128Z,470.65
2023-05-01T10:48:59.564Z,482.95
2023-05-01T10:51:28.637Z,531.50
2023-05-01T10:54:26.649Z,437.25
2023-05-01T10:56:56.010Z,473.50
2023-05-01T10:59:24.552Z,500.98
2023-05-01T11:01:53.778Z,484.30
2023-05-01T11:04:51.265Z,531.45
2023-05-01T11:07:21.168Z,565.22
2023-05-01T11:09:54.995Z,564.72
2023-05-01T11:12:55.030Z,523.88
2023-05-01T11:15:33.651Z,563.92
2023-05-01T11:18:07.943Z,530.55
2023-05-01T11:20:51.887Z,597.20
2023-05-01T11:23:23.527Z,676.28
2023-05-01T11:26:04.590Z,631.55
2023-05-01T11:28:33.842Z,615.47
2023-05-01T11:31:05.530Z,617.83
2023-05-01T11:33:35.666Z,662.22
2023-05-01T11:36:05.016Z,662.25
2023-05-01T11:38:33.552Z,685.83
2023-05-01T11:41:04.993Z,668.00
2023-05-01T11:43:33.433Z,680.17
2023-05-01T11:46:07.570Z,639.97
2023-05-01T11:48:36.113Z,641.22
2023-05-01T11:51:14.257Z,779.80
2023-05-01T11:53:42.826Z,734.03
2023-05-01T11:56:26.979Z,704.35
2023-05-01T11:58:56.110Z,692.15
2023-05-01T12:01:34.178Z,704.60
2023-05-01T12:04:03.156Z,705.25
2023-05-01T12:06:40.630Z,698.05
2023-05-01T12:09:09.616Z,709.88
2023-05-01T12:11:40.052Z,670.15
2023-05-01T12:14:08.534Z,694.35
2023-05-01T12:16:37.009Z,691.13
2023-05-01T12:19:05.684Z,732.00
2023-05-01T12:21:34.650Z,645.42
2023-05-01T12:24:10.561Z,683.97
2023-05-01T12:26:44.864Z,703.28
2023-05-01T12:31:49.204Z,660.60
2023-05-01T12:34:17.774Z,641.13
2023-05-01T12:36:55.148Z,680.72
2023-05-01T12:39:24.601Z,752.65
2023-05-01T12:41:56.394Z,706.47
2023-05-01T12:44:26.483Z,710.45
2023-05-01T12:46:56.049Z,685.08
2023-05-01T12:49:25.387Z,702.20
2023-05-01T12:51:54.850Z,707.65
2023-05-01T12:54:24.183Z,766.67
2023-05-01T12:56:54.223Z,715.03
2023-05-01T12:59:23.910Z,755.03
2023-05-01T13:02:00.388Z,785.85
2023-05-01T13:04:29.358Z,694.67
2023-05-01T13:06:58.779Z,666.38
2023-05-01T13:09:28.422Z,651.10
2023-05-01T13:12:02.457Z,640.15
2023-05-01T13:14:31.966Z,646.20
2023-05-01T13:17:09.342Z,658.67
2023-05-01T13:19:38.953Z,643.80
2023-05-01T13:22:07.861Z,695.10
2023-05-01T13:24:42.379Z,694.75
2023-05-01T13:27:12.912Z,735.45
2023-05-01T13:29:42.680Z,718.17
2023-05-01T13:32:15.764Z,753.50
2023-05-01T13:34:45.141Z,644.80
2023-05-01T13:37:14.458Z,692.83
2023-05-01T13:39:44.050Z,632.28
2023-05-01T13:42:18.971Z,636.47
2023-05-01T13:44:53.114Z,605.10
2023-05-01T13:47:23.335Z,615.38
2023-05-01T13:49:51.771Z,626.38
2023-05-01T13:52:21.003Z,683.80
2023-05-01T13:54:50.157Z,677.90
2023-05-01T13:57:23.362Z,684.65
2023-05-01T13:59:51.697Z,643.47
2023-05-01T14:02:21.587Z,697.15
2023-05-01T14:04:50.437Z,673.97
2023-05-01T14:07:20.132Z,715.97
2023-05-01T14:09:54.009Z,685.78
2023-05-01T14:12:29.414Z,643.13
2023-05-01T14:14:58.320Z,689.15
2023-05-01T14:17:29.151Z,693.53
2023-05-01T14:19:57.648Z,668.15
2023-05-01T14:22:26.873Z,711.08
2023-05-01T14:24:58.038Z,616.40
2023-05-01T14:41:03.188Z,665.30
2023-05-01T14:43:32.520Z,681.15
2023-05-01T14:46:01.516Z,729.15
2023-05-01T14:48:42.601Z,701.13
2023-05-01T14:51:13.207Z,690.72
2023-05-01T14:53:43.856Z,730.80
2023-05-01T14:56:14.270Z,686.97
2023-05-01T14:58:43.232Z,678.10
2023-05-01T15:01:12.243Z,697.67
2023-05-01T15:03:43.849Z,689.58
2023-05-01T15:06:12.780Z,652.35
2023-05-01T15:08:41.563Z,676.47
2023-05-01T15:11:10.139Z,712.13
2023-05-01T15:13:41.472Z,686.78
2023-05-01T15:16:10.958Z,662.47
2023-05-01T15:18:39.440Z,685.30
2023-05-01T15:21:07.997Z,665.78
2023-05-01T15:23:37.142Z,672.75
2023-05-01T15:26:05.664Z,660.67
2023-05-01T15:28:34.267Z,670.10
2023-05-01T15:31:04.304Z,667.10
2023-05-01T15:33:33.200Z,686.13
2023-05-01T15:36:01.671Z,650.38
2023-05-01T15:38:30.180Z,658.20
2023-05-01T15:40:58.712Z,701.63
2023-05-01T15:43:27.269Z,664.45
2023-05-01T15:45:58.968Z,686.35
2023-05-01T15:48:29.270Z,697.42
2023-05-01T15:50:58.083Z,709.55
2023-05-01T15:53:26.773Z,666.03
2023-05-01T15:55:58.530Z,668.40
2023-05-01T15:58:27.108Z,721.88
2023-05-01T16:00:55.563Z,746.22
2023-05-01T16:03:25.110Z,696.22
2023-05-01T16:05:56.080Z,702.08
2023-05-01T16:08:24.722Z,692.63
2023-05-01T16:10:54.193Z,697.22
2023-05-01T16:13:23.002Z,667.08
2023-05-01T16:15:51.763Z,677.75
2023-05-01T16:18:21.714Z,727.20
2023-05-01T16:20:53.436Z,649.97
2023-05-01T16:23:23.830Z,651.30
2023-05-01T16:25:52.376Z,665.40
2023-05-01T16:28:25.093Z,716.05
2023-05-01T16:30:53.488Z,656.22
2023-05-01T16:33:23.418Z,670.25
2023-05-01T16:35:52.159Z,655.70
2023-05-01T16:38:57.474Z,675.00
2023-05-01T16:41:27.220Z,672.45
2023-05-01T16:43:56.592Z,654.38
2023-05-01T16:46:25.083Z,647.47
2023-05-01T16:48:53.771Z,647.58
2023-05-01T16:51:22.089Z,616.08
2023-05-01T16:53:50.454Z,672.78
2023-05-01T16:56:18.807Z,621.45
2023-05-01T16:58:48.514Z,606.38
2023-05-01T17:01:17.196Z,695.92
2023-05-01T17:03:45.603Z,676.55
2023-05-01T17:06:14.000Z,648.83
2023-05-01T17:08:42.311Z,650.47
2023-05-01T17:11:10.901Z,637.00
2023-05-01T17:13:39.283Z,659.70
2023-05-01T17:16:09.290Z,636.13
2023-05-01T17:18:37.892Z,683.22
2023-05-01T17:21:07.023Z,656.20
2023-05-01T17:23:35.386Z,679.17
2023-05-01T17:26:04.181Z,649.92
2023-05-01T17:28:32.773Z,663.45
2023-05-01T17:31:01.168Z,651.15
2023-05-01T17:33:31.818Z,668.72
2023-05-01T17:36:00.773Z,713.72
2023-05-01T17:38:29.236Z,682.55
2023-05-01T17:40:57.687Z,791.25
2023-05-01T17:43:26.730Z,663.97
2023-05-01T17:45:55.350Z,682.88
2023-05-01T17:48:23.933Z,673.53
2023-05-01T17:50:55.769Z,664.33
2023-05-01T17:53:24.198Z,677.25
2023-05-01T17:55:52.679Z,685.63
2023-05-01T17:58:21.581Z,675.33
2023-05-01T18:00:51.807Z,667.53
2023-05-01T18:03:20.379Z,683.67
2023-05-01T18:05:49.102Z,676.88
2023-05-01T18:08:19.002Z,685.35
2023-05-01T18:10:47.596Z,667.35
2023-05-01T18:13:16.775Z,670.72
2023-05-01T18:15:45.197Z,669.63
2023-05-01T18:18:14.122Z,667.83
2023-05-01T18:20:42.825Z,667.22
2023-05-01T18:23:11.501Z,719.22
2023-05-01T18:25:41.302Z,687.75
2023-05-01T18:28:10.135Z,671.13
2023-05-01T18:30:38.656Z,650.55
2023-05-01T18:33:07.212Z,665.20
2023-05-01T18:35:36.213Z,663.30
2023-05-01T18:38:04.638Z,672.58
2023-05-01T18:40:33.121Z,644.30
2023-05-01T18:43:03.076Z,660.92
2023-05-01T18:45:31.877Z,656.78
2023-05-01T18:48:01.120Z,674.65
2023-05-01T18:50:29.621Z,717.58
2023-05-01T18:53:37.646Z,651.60
2023-05-01T18:56:09.432Z,679.10
2023-05-01T18:58:39.948Z,676.83
2023-05-01T19:01:08.811Z,663.22
2023-05-01T19:03:37.239Z,656.17
2023-05-01T19:06:05.851Z,680.05
2023-05-01T19:08:34.346Z,662.78
2023-05-01T19:11:02.869Z,716.60
2023-05-01T19:13:31.483Z,667.65
2023-05-01T19:16:11.686Z,666.85
2023-05-01T19:18:40.438Z,648.47
2023-05-01T19:21:09.119Z,667.50
2023-05-01T19:26:26.550Z,665.13
2023-05-01T19:28:55.108Z,653.85
2023-05-01T19:31:26.990Z,681.97
2023-05-01T20:27:49.369Z,664.70
2023-05-01T20:30:19.353Z,659.88
2023-05-01T20:32:48.767Z,658.92
2023-05-01T20:35:17.490Z,679.75
2023-05-01T20:37:46.023Z,656.67
2023-05-01T20:40:16.447Z,662.53
2023-05-01T20:42:44.924Z,662.78
2023-05-01T20:45:13.303Z,656.50
2023-05-01T20:47:43.078Z,674.38
2023-05-01T20:50:12.004Z,658.53
2023-05-01T20:52:40.439Z,666.85
2023-05-01T20:55:09.825Z,653.67
2023-05-01T20:57:38.277Z,670.97
2023-05-01T21:00:07.935Z,646.90
2023-05-01T21:02:38.859Z,656.60
2023-05-01T21:05:10.251Z,656.55
2023-05-01T21:07:38.853Z,663.30
2023-05-01T21:10:09.084Z,661.05
2023-05-01T21:12:37.482Z,655.53
2023-05-01T21:15:06.842Z,652.38
2023-05-01T21:17:36.921Z,664.63
2023-05-01T21:20:08.810Z,661.90
2023-05-01T21:22:37.207Z,638.42
2023-05-01T21:25:06.689Z,655.47
2023-05-01T21:27:35.023Z,666.97
2023-05-01T21:30:05.260Z,674.38
2023-05-01T21:32:38.152Z,662.25
2023-05-01T21:35:10.005Z,662.90
2023-05-01T21:37:38.488Z,654.13
2023-05-01T21:40:08.392Z,657.53
2023-05-01T21:42:38.464Z,641.42
2023-05-01T21:45:08.306Z,654.88
2023-05-01T21:47:39.538Z,648.30
2023-05-01T21:50:12.306Z,658.20
2023-05-01T21:52:41.014Z,639.15
2023-05-01T21:55:11.107Z,656.85
2023-05-01T21:57:40.254Z,657.50
2023-05-01T22:00:10.193Z,640.65
2023-05-01T22:02:42.478Z,634.22
2023-05-01T22:05:14.026Z,640.72
2023-05-01T22:07:43.724Z,645.83
2023-05-01T22:10:13.653Z,651.35
2023-05-01T22:12:42.237Z,656.10
2023-05-01T22:18:23.690Z,640.85
2023-05-01T22:21:08.633Z,634.13
2023-05-01T22:35:47.317Z,644.65
2023-05-01T22:38:22.966Z,630.83
